• Back
  •  
  • Position of Reservoir Gates
S.No.
No. of opened gates
Position of opening (In m)
Reporting Date
Reporting Time
Discharge in Cumecs
Discharge in Cusecs
Actual date and time of Gate opening
1
2
3
4
5
6
7
8
1 8 0.9 22/08/2020 5:00:00 AM 560.2 19783.46
2 5 0.9 28/08/2020 8:00:00 AM 57.57 2033.08 5 Gates opened at 5:45 am today.
3 2 0.9 28/08/2020 4:15:00 PM 115.1 4064.76
4 2 0.9 29/08/2020 12:00:00 AM 115.1 4064.76 Actual Date of Gate Opening 28.08.2020 & Time 4.15 PM
5 8 0.9 29/08/2020 4:30:00 PM 460.6 16266.09
6 4 0.45 01/08/2016 5:00:00 PM 20 706.3
7 8 0.9 30/08/2020 12:00:00 AM 460.6 16266.09 Gates opened on dated 29.08.2020 at 4.30PM
8 8 0.9 30/08/2020 8:00:00 AM 460.6 16266.09
9 6 0.44 01/08/2016 4:00:00 PM 33 1165.39
10 6 0.48 01/08/2016 5:00:00 PM 33 1165.39
11 8 0.9 30/08/2020 12:00:00 PM 460.6 16266.09
12 7 0.9 30/08/2020 4:00:00 PM 398.4 14069.5
13 6 0.9 30/08/2020 8:00:00 PM 340 12007.1
14 0 0 30/08/2020 9:30:00 PM 0 0
15 0 0 31/08/2020 12:00:00 AM 0 0 All Gates closed on Daed 30.08.2020 at 9.30 PM
16 1 0.2 06/08/2016 8:01:00 AM 2.4 84.76
17 2 0.1 07/08/2016 8:30:00 AM 1.2 42.38
18 0 0 07/08/2016 9:00:00 AM 0 0
19 2 0.3 07/08/2016 12:30:00 PM 2.4 84.76
20 0 0 08/08/2016 8:30:00 AM 0 0 closed
21 1 0.9 03/09/2020 4:00:00 PM 57 2012.95
22 1 0.9 04/09/2020 12:00:00 AM 57 2012.95
23 1 1 24/09/2020 12:00:00 AM 56.78 2005.19
24 0 0 24/09/2020 4:00:00 PM 0 0 ALL GATES ARE CLOSED
25 1 0.5 29/09/2020 12:00:00 AM 56.78 2005.19
26 0 0 29/09/2020 7:30:00 AM 0 0
27 0 0 21/08/2016 7:00:00 AM 0 0 closed
28 3 1.82 20/08/2016 12:00:00 AM 8 282.52 gate open 19/8/2016 8:30 PM
29 1 0.2 24/08/2016 8:30:00 AM 2.4 84.76
30 0 0 25/08/2016 6:30:00 AM 0 0 closed
31 0 0 28/08/2016 8:00:01 AM 0 0 Gate closed at 6 am on 28.08.2016
32 1 0.2 27/08/2016 8:30:00 AM 2.4 84.76
33 0 0 01/09/2016 8:01:00 AM 0 0 closed
34 2 0.9 17/09/2021 1:00:00 PM 56 1977.64 17/09/2021
35 8 0.3 15/08/2019 6:00:00 AM 7.1 250.74
36 8 0.3 16/08/2019 12:01:00 AM 7.1 250.74
37 0 0 16/08/2019 7:00:00 AM 0 0 all gates are closed
38 2 0.2 22/08/2019 4:00:00 AM 4.73 167.04
39 0 0 22/08/2019 5:30:00 PM 0 0 all gates are closed
40 2 0.2 22/08/2019 8:00:00 PM 4.73 167.04
41 2 0.2 23/08/2019 12:01:00 AM 4.73 167.04
42 0 0 23/08/2019 2:42:00 AM 0 0 all gates are closed
43 4 0.3 24/08/2019 6:00:00 AM 7.1 250.74
44 4 0.3 25/08/2019 12:01:00 AM 7.1 250.74
45 0 0 25/08/2019 6:00:00 AM 0 0 all gates are closed at 6am
46 2 0.2 26/08/2019 11:30:00 AM 4.73 167.04
47 0 0 27/08/2019 6:00:00 AM 0 0 All gates ate closed at 6.00 am
48 3 0.25 01/09/2019 6:00:00 AM 5.91 208.71
49 0 0 01/09/2019 6:30:00 PM 0 0 all gates are closed at 6:30pm
50 3 0.3 04/09/2019 4:00:00 PM 7.1 250.74
51 4 0.25 08/09/2019 5:30:00 PM 5.91 208.71
52 4 0.25 09/09/2019 3:00:00 AM 5.91 208.71
53 5 0.25 09/09/2019 12:15:00 PM 29.55 1043.56
54 6 0.25 09/09/2019 4:00:00 PM 5.91 208.71
55 5 0.25 09/09/2019 8:00:00 PM 29.55 1043.56
56 3 0.25 11/09/2019 8:00:00 AM 29.55 1043.56
57 5 0.25 12/09/2019 12:01:00 AM 29.5 1041.79
58 4 0.2 12/09/2019 8:30:00 PM 18.92 668.16
59 4 0.2 13/09/2019 3:16:00 AM 18.92 668.16
60 2 0.2 13/09/2019 4:00:00 PM 9.46 334.08
61 2 0.2 14/09/2019 12:01:00 AM 14.19 501.12
62 3 0.2 14/09/2019 4:00:00 PM 14.19 501.12
63 1 0.2 15/09/2019 8:00:00 AM 4.73 167.04
64 1 0.2 15/09/2019 1:00:00 PM 4.73 167.04
65 1 0.2 15/09/2019 6:00:00 PM 4.73 167.04
66 1 0.2 16/09/2019 12:01:00 AM 4.73 167.04
67 3 0.2 17/09/2019 8:00:00 AM 14.19 501.12
68 3 0.2 18/09/2019 12:01:00 AM 4.73 167.04 gate opening since 17/9/2019at4:0pm
69 0 0 18/09/2019 2:00:00 AM 0 0
70 0 0 21/09/2019 9:00:00 AM 0 0 All Gates are closed.
71 0 0 22/09/2019 10:00:00 AM 0 0 All Gates are closed
72 3 0.25 27/09/2019 6:30:00 PM 17.73 626.13
73 3 0.25 28/09/2019 12:01:00 AM 17.73 626.13
74 3 0.25 29/09/2019 1:30:00 AM 17.73 626.13
75 0 0 29/09/2019 6:30:00 AM 0 0 All Gates are closed.
76 2 0.2 01/10/2019 4:00:00 PM 9.4 331.96
Powered by © Water Resources Department (MP). All Rights Reserved.